La rose des vents
Donnes mto: Semaine 25/06/07 - 01/07/07 (S 26)
Date Horaire Temp. E. Hum. E. P.atmo. Pluie Vent 1mn Direction Ensoleilleme Ev.Tr. Solaire P. de rose Temp au vent Rafales
25/06/2007 00:00 19,2 C 79 % 1012,1 hPa 0,0 l/m 4,8 km/h (1 Bft) O 0,00 h 0,025 mm 0 W/m 15,4 C 19,2 C 6,9 km/h (2 Bft)
25/06/2007 01:00 19,3 C 78 % 1011,1 hPa 0,0 l/m 4,8 km/h (1 Bft) O-SO 0,00 h 0,025 mm 0 W/m 15,3 C 19,3 C 6,2 km/h (2 Bft)
25/06/2007 02:00 18,7 C 78 % 1010,8 hPa 0,0 l/m 3,9 km/h (1 Bft) O 0,00 h 0,025 mm 0 W/m 14,7 C 18,7 C 5,8 km/h (2 Bft)
25/06/2007 03:00 18,5 C 79 % 1010,5 hPa 0,0 l/m 2,6 km/h (1 Bft) O 0,00 h 0,025 mm 0 W/m 14,8 C 18,5 C 3,9 km/h (1 Bft)
25/06/2007 04:00 18,0 C 79 % 1010,1 hPa 0,0 l/m 3,3 km/h (1 Bft) NO 0,00 h 0,025 mm 0 W/m 14,2 C 18,0 C 5,6 km/h (1 Bft)
25/06/2007 05:00 18,7 C 70 % 1009,8 hPa 0,0 l/m 5,1 km/h (1 Bft) NO 0,00 h 0,025 mm 5 W/m 13,2 C 18,7 C 8,8 km/h (2 Bft)
25/06/2007 06:00 19,5 C 64 % 1009,7 hPa 0,0 l/m 2,2 km/h (1 Bft) O-NO 0,12 h 0,025 mm 30 W/m 12,6 C 19,5 C 4,1 km/h (1 Bft)
25/06/2007 07:00 20,7 C 59 % 1009,9 hPa 0,0 l/m 3,8 km/h (1 Bft) O-NO 0,37 h 0,025 mm 122 W/m 12,3 C 20,7 C 5,7 km/h (1 Bft)
25/06/2007 08:00 24,0 C 51 % 1010,0 hPa 0,0 l/m 0,9 km/h (0 Bft) O 1,00 h 0,102 mm 332 W/m 13,3 C 24,0 C 2,5 km/h (1 Bft)
25/06/2007 09:00 26,0 C 46 % 1010,2 hPa 0,0 l/m 2,9 km/h (1 Bft) E 1,00 h 0,229 mm 503 W/m 13,5 C 26,0 C 5,9 km/h (2 Bft)
25/06/2007 10:00 26,9 C 43 % 1010,0 hPa 0,0 l/m 5,2 km/h (1 Bft) E 1,00 h 0,356 mm 650 W/m 13,3 C 26,9 C 9,3 km/h (2 Bft)
25/06/2007 11:00 28,1 C 40 % 1009,9 hPa 0,0 l/m 10,2 km/h (2 Bft) E 1,00 h 0,483 mm 771 W/m 13,3 C 28,1 C 15,2 km/h (3 Bft)
25/06/2007 12:00 28,3 C 42 % 1009,8 hPa 0,0 l/m 11,7 km/h (2 Bft) E 1,00 h 0,610 mm 850 W/m 14,0 C 28,3 C 17,0 km/h (3 Bft)
25/06/2007 13:00 28,5 C 43 % 1009,6 hPa 0,0 l/m 11,3 km/h (2 Bft) E 1,00 h 0,686 mm 877 W/m 14,7 C 28,5 C 16,8 km/h (3 Bft)
25/06/2007 14:00 27,6 C 46 % 1009,3 hPa 0,0 l/m 11,5 km/h (2 Bft) S 1,00 h 0,686 mm 848 W/m 15,0 C 27,6 C 17,2 km/h (3 Bft)
25/06/2007 15:00 27,9 C 46 % 1008,8 hPa 0,0 l/m 11,2 km/h (2 Bft) S 1,00 h 0,660 mm 781 W/m 15,3 C 27,9 C 17,6 km/h (3 Bft)
25/06/2007 16:00 27,7 C 49 % 1008,2 hPa 0,0 l/m 12,4 km/h (3 Bft) S-SE 1,00 h 0,610 mm 673 W/m 16,1 C 27,7 C 17,8 km/h (3 Bft)
25/06/2007 17:00 26,8 C 57 % 1007,3 hPa 0,0 l/m 13,9 km/h (3 Bft) S-SE 1,00 h 0,559 mm 530 W/m 17,5 C 26,8 C 19,4 km/h (3 Bft)
25/06/2007 18:00 26,1 C 51 % 1007,0 hPa 0,0 l/m 11,1 km/h (2 Bft) S-SE 1,00 h 0,432 mm 368 W/m 15,3 C 26,1 C 15,6 km/h (3 Bft)
25/06/2007 19:00 25,0 C 62 % 1006,5 hPa 0,0 l/m 10,7 km/h (2 Bft) S 1,00 h 0,330 mm 197 W/m 17,2 C 25,0 C 14,7 km/h (3 Bft)
25/06/2007 20:00 23,7 C 72 % 1006,2 hPa 0,0 l/m 3,1 km/h (1 Bft) S-SO 0,07 h 0,203 mm 44 W/m 18,2 C 23,7 C 4,9 km/h (1 Bft)
25/06/2007 21:00 22,2 C 78 % 1005,9 hPa 0,0 l/m 1,8 km/h (1 Bft) S-SO 0,02 h 0,051 mm 7 W/m 18,1 C 22,2 C 3,1 km/h (1 Bft)
25/06/2007 22:00 21,6 C 79 % 1006,0 hPa 0,0 l/m 7,4 km/h (2 Bft) O-SO 0,00 h 0,025 mm 0 W/m 17,7 C 21,6 C 10,8 km/h (2 Bft)
25/06/2007 23:00 22,5 C 62 % 1005,9 hPa 0,0 l/m 20,0 km/h (4 Bft) O-SO 0,00 h 0,051 mm 0 W/m 14,9 C 22,5 C 26,1 km/h (4 Bft)
26/06/2007 00:00 22,4 C 49 % 1006,1 hPa 0,0 l/m 15,3 km/h (3 Bft) O-SO 0,00 h 0,127 mm 0 W/m 11,0 C 22,4 C 21,9 km/h (4 Bft)
26/06/2007 01:00 22,5 C 34 % 1006,0 hPa 0,0 l/m 13,7 km/h (3 Bft) O-SO 0,00 h 0,152 mm 0 W/m 5,9 C 22,5 C 19,6 km/h (3 Bft)
26/06/2007 02:00 21,7 C 31 % 1005,5 hPa 0,0 l/m 17,2 km/h (3 Bft) O-SO 0,00 h 0,178 mm 0 W/m 3,7 C 21,7 C 24,6 km/h (4 Bft)
26/06/2007 03:00 21,2 C 27 % 1004,9 hPa 0,0 l/m 22,3 km/h (4 Bft) O-SO 0,00 h 0,203 mm 0 W/m 1,6 C 21,2 C 28,9 km/h (5 Bft)
26/06/2007 04:00 20,6 C 27 % 1004,5 hPa 0,0 l/m 21,4 km/h (4 Bft) O-SO 0,00 h 0,254 mm 0 W/m 1,2 C 20,6 C 28,9 km/h (5 Bft)
26/06/2007 05:00 19,6 C 30 % 1004,5 hPa 0,0 l/m 21,5 km/h (4 Bft) O-SO 0,00 h 0,229 mm 6 W/m 1,3 C 19,6 C 29,3 km/h (5 Bft)
26/06/2007 06:00 17,0 C 44 % 1004,3 hPa 0,0 l/m 28,5 km/h (4 Bft) O-SO 0,02 h 0,229 mm 17 W/m 4,5 C 17,0 C 36,0 km/h (5 Bft)
26/06/2007 07:00 18,2 C 39 % 1004,4 hPa 0,0 l/m 3,8 km/h (1 Bft) E-NE 0,45 h 0,229 mm 135 W/m 4,1 C 18,2 C 7,3 km/h (2 Bft)
26/06/2007 08:00 21,2 C 33 % 1004,7 hPa 0,0 l/m 16,7 km/h (3 Bft) O-SO 0,97 h 0,127 mm 399 W/m 4,2 C 21,2 C 24,8 km/h (4 Bft)
26/06/2007 09:00 22,9 C 30 % 1003,9 hPa 0,0 l/m 20,6 km/h (4 Bft) O-SO 0,45 h 0,406 mm 398 W/m 4,5 C 22,9 C 27,9 km/h (4 Bft)
26/06/2007 10:00 25,5 C 26 % 1003,4 hPa 0,0 l/m 9,4 km/h (2 Bft) O-SO 0,92 h 0,457 mm 638 W/m 4,7 C 25,5 C 14,3 km/h (3 Bft)
26/06/2007 11:00 26,4 C 26 % 1003,3 hPa 0,0 l/m 22,0 km/h (4 Bft) O-SO 0,97 h 0,533 mm 738 W/m 5,5 C 26,4 C 30,5 km/h (5 Bft)
26/06/2007 12:00 26,6 C 26 % 1002,8 hPa 0,0 l/m 31,6 km/h (5 Bft) O-SO 0,97 h 0,737 mm 756 W/m 5,7 C 26,6 C 41,2 km/h (6 Bft)
26/06/2007 13:00 27,4 C 26 % 1002,5 hPa 0,0 l/m 28,9 km/h (5 Bft) SO 0,97 h 0,838 mm 796 W/m 6,2 C 27,4 C 37,8 km/h (5 Bft)
26/06/2007 14:00 29,1 C 24 % 1001,7 hPa 0,0 l/m 26,9 km/h (4 Bft) SO 1,00 h 0,864 mm 902 W/m 6,1 C 29,1 C 36,4 km/h (5 Bft)
26/06/2007 15:00 29,6 C 20 % 1001,2 hPa 0,0 l/m 28,7 km/h (4 Bft) O-SO 1,00 h 0,940 mm 831 W/m 4,5 C 29,6 C 39,7 km/h (6 Bft)
26/06/2007 16:00 28,6 C 25 % 1000,5 hPa 0,0 l/m 35,8 km/h (5 Bft) O-SO 1,00 h 0,940 mm 715 W/m 6,3 C 28,6 C 48,3 km/h (6 Bft)
26/06/2007 17:00 27,9 C 27 % 999,9 hPa 0,0 l/m 32,7 km/h (5 Bft) O-SO 1,00 h 0,914 mm 565 W/m 7,0 C 27,9 C 44,2 km/h (6 Bft)
26/06/2007 18:00 27,1 C 28 % 1000,0 hPa 0,0 l/m 31,6 km/h (5 Bft) O-SO 1,00 h 0,762 mm 392 W/m 7,1 C 27,1 C 42,0 km/h (6 Bft)
26/06/2007 19:00 26,5 C 31 % 1000,4 hPa 0,0 l/m 18,2 km/h (3 Bft) O-SO 1,00 h 0,610 mm 221 W/m 7,8 C 26,5 C 25,6 km/h (4 Bft)
26/06/2007 20:00 22,2 C 65 % 1002,0 hPa 0,0 l/m 6,8 km/h (2 Bft) E 0,25 h 0,356 mm 52 W/m 15,2 C 22,2 C 10,4 km/h (2 Bft)
26/06/2007 21:00 19,8 C 74 % 1002,8 hPa 0,0 l/m 3,2 km/h (1 Bft) E 0,02 h 0,076 mm 7 W/m 15,0 C 19,8 C 5,2 km/h (1 Bft)
26/06/2007 22:00 18,9 C 82 % 1003,3 hPa 0,0 l/m 2,5 km/h (1 Bft) S-SE 0,00 h 0,025 mm 0 W/m 15,8 C 18,9 C 4,3 km/h (1 Bft)
26/06/2007 23:00 17,9 C 88 % 1003,5 hPa 0,0 l/m 0,5 km/h (0 Bft) S-SE 0,00 h 0,025 mm 0 W/m 15,8 C 17,9 C 1,1 km/h (1 Bft)
27/06/2007 00:00 17,4 C 89 % 1003,6 hPa 0,0 l/m 0,9 km/h (0 Bft) O-NO 0,00 h 0,025 mm 0 W/m 15,5 C 17,4 C 1,7 km/h (1 Bft)
27/06/2007 01:00 16,7 C 89 % 1003,7 hPa 0,0 l/m 1,2 km/h (1 Bft) O-NO 0,00 h 0,025 mm 0 W/m 14,9 C 16,7 C 2,2 km/h (1 Bft)
27/06/2007 02:00 16,4 C 90 % 1003,7 hPa 0,0 l/m 2,2 km/h (1 Bft) N 0,00 h 0,025 mm 0 W/m 14,8 C 16,4 C 3,5 km/h (1 Bft)
27/06/2007 03:00 16,4 C 91 % 1003,9 hPa 0,0 l/m 2,3 km/h (1 Bft) O-NO 0,00 h 0,025 mm 0 W/m 15,0 C 16,4 C 3,5 km/h (1 Bft)
27/06/2007 04:00 15,9 C 92 % 1004,0 hPa 0,0 l/m 0,5 km/h (0 Bft) SE 0,00 h 0,025 mm 0 W/m 14,6 C 15,9 C 1,3 km/h (1 Bft)
27/06/2007 05:00 15,5 C 93 % 1004,3 hPa 0,0 l/m 2,3 km/h (1 Bft) N-NE 0,00 h 0,000 mm 6 W/m 14,4 C 15,5 C 3,9 km/h (1 Bft)
27/06/2007 06:00 15,3 C 93 % 1004,5 hPa 0,2 l/m 1,3 km/h (1 Bft) SO 0,02 h 0,000 mm 19 W/m 14,2 C 15,3 C 2,6 km/h (1 Bft)
27/06/2007 07:00 16,4 C 76 % 1005,0 hPa 0,0 l/m 3,2 km/h (1 Bft) O-SO 0,43 h 0,025 mm 126 W/m 11,7 C 16,4 C 5,0 km/h (1 Bft)
27/06/2007 08:00 20,3 C 43 % 1005,2 hPa 0,0 l/m 4,1 km/h (1 Bft) S-SO 1,00 h 0,076 mm 368 W/m 7,4 C 20,3 C 6,5 km/h (2 Bft)
27/06/2007 09:00 22,9 C 34 % 1005,1 hPa 0,0 l/m 6,1 km/h (2 Bft) NE 1,00 h 0,254 mm 537 W/m 6,1 C 22,9 C 10,1 km/h (2 Bft)
27/06/2007 10:00 23,8 C 33 % 1005,1 hPa 0,0 l/m 8,0 km/h (2 Bft) E-NE 1,00 h 0,406 mm 681 W/m 6,5 C 23,8 C 12,2 km/h (2 Bft)
27/06/2007 11:00 25,5 C 31 % 1005,0 hPa 0,0 l/m 10,9 km/h (2 Bft) E 1,00 h 0,508 mm 797 W/m 7,2 C 25,5 C 16,0 km/h (3 Bft)
27/06/2007 12:00 26,7 C 30 % 1004,8 hPa 0,0 l/m 11,5 km/h (2 Bft) E 1,00 h 0,635 mm 875 W/m 7,9 C 26,7 C 16,7 km/h (3 Bft)
27/06/2007 13:00 27,2 C 29 % 1004,5 hPa 0,0 l/m 13,7 km/h (3 Bft) E-NE 1,00 h 0,686 mm 901 W/m 7,8 C 27,2 C 19,8 km/h (3 Bft)
27/06/2007 14:00 27,4 C 29 % 1004,1 hPa 0,0 l/m 13,1 km/h (3 Bft) E 1,00 h 0,737 mm 875 W/m 7,9 C 27,4 C 19,9 km/h (4 Bft)
27/06/2007 15:00 26,9 C 32 % 1004,0 hPa 0,0 l/m 13,6 km/h (3 Bft) E 1,00 h 0,737 mm 808 W/m 8,7 C 26,9 C 20,0 km/h (4 Bft)
27/06/2007 16:00 26,1 C 39 % 1004,0 hPa 0,0 l/m 10,9 km/h (2 Bft) E 1,00 h 0,660 mm 693 W/m 10,9 C 26,1 C 17,1 km/h (3 Bft)
27/06/2007 17:00 25,5 C 41 % 1003,7 hPa 0,0 l/m 10,4 km/h (2 Bft) E 1,00 h 0,559 mm 551 W/m 11,3 C 25,5 C 17,3 km/h (3 Bft)
27/06/2007 18:00 24,1 C 44 % 1003,8 hPa 0,0 l/m 9,2 km/h (2 Bft) E 1,00 h 0,457 mm 387 W/m 11,0 C 24,1 C 16,0 km/h (3 Bft)
27/06/2007 19:00 23,2 C 46 % 1004,0 hPa 0,0 l/m 9,0 km/h (2 Bft) E 1,00 h 0,330 mm 217 W/m 10,9 C 23,2 C 14,1 km/h (3 Bft)
27/06/2007 20:00 21,8 C 51 % 1004,5 hPa 0,0 l/m 4,2 km/h (1 Bft) E 0,25 h 0,229 mm 50 W/m 11,2 C 21,8 C 7,0 km/h (2 Bft)
27/06/2007 21:00 19,5 C 62 % 1005,2 hPa 0,0 l/m 3,4 km/h (1 Bft) E-NE 0,02 h 0,076 mm 8 W/m 12,1 C 19,5 C 5,0 km/h (1 Bft)
27/06/2007 22:00 18,8 C 63 % 1006,2 hPa 0,0 l/m 0,6 km/h (0 Bft) E 0,00 h 0,025 mm 0 W/m 11,6 C 18,8 C 1,8 km/h (1 Bft)
27/06/2007 23:00 18,3 C 73 % 1006,9 hPa 0,0 l/m 0,6 km/h (0 Bft) E-SE 0,00 h 0,051 mm 0 W/m 13,3 C 18,3 C 1,7 km/h (1 Bft)
28/06/2007 00:00 17,9 C 79 % 1007,8 hPa 0,0 l/m 1,4 km/h (1 Bft) SO 0,00 h 0,025 mm 0 W/m 14,1 C 17,9 C 2,3 km/h (1 Bft)
28/06/2007 01:00 16,9 C 79 % 1008,1 hPa 0,0 l/m 3,0 km/h (1 Bft) SO 0,00 h 0,025 mm 0 W/m 13,2 C 16,9 C 4,6 km/h (1 Bft)
28/06/2007 02:00 17,1 C 78 % 1008,3 hPa 0,0 l/m 3,9 km/h (1 Bft) O 0,00 h 0,025 mm 0 W/m 13,3 C 17,1 C 4,9 km/h (1 Bft)
28/06/2007 03:00 16,4 C 68 % 1008,6 hPa 0,0 l/m 6,8 km/h (2 Bft) O 0,00 h 0,025 mm 0 W/m 10,4 C 16,4 C 8,6 km/h (2 Bft)
28/06/2007 04:00 15,9 C 66 % 1008,8 hPa 0,0 l/m 6,9 km/h (2 Bft) O-NO 0,00 h 0,051 mm 0 W/m 9,6 C 15,9 C 9,1 km/h (2 Bft)
28/06/2007 05:00 15,6 C 66 % 1009,0 hPa 0,0 l/m 4,2 km/h (1 Bft) O-NO 0,00 h 0,051 mm 5 W/m 9,2 C 15,6 C 6,6 km/h (2 Bft)
28/06/2007 06:00 16,1 C 67 % 1009,3 hPa 0,0 l/m 3,7 km/h (1 Bft) O-NO 0,00 h 0,025 mm 34 W/m 9,9 C 16,1 C 6,6 km/h (2 Bft)
28/06/2007 07:00 17,6 C 64 % 1009,8 hPa 0,0 l/m 1,5 km/h (1 Bft) NO 0,43 h 0,051 mm 122 W/m 10,6 C 17,6 C 3,6 km/h (1 Bft)
28/06/2007 08:00 20,6 C 66 % 1010,4 hPa 0,0 l/m 1,9 km/h (1 Bft) E-NE 0,97 h 0,076 mm 350 W/m 14,1 C 20,6 C 4,1 km/h (1 Bft)
28/06/2007 09:00 20,7 C 68 % 1011,1 hPa 0,0 l/m 3,8 km/h (1 Bft) S-SO 0,32 h 0,229 mm 300 W/m 14,7 C 20,7 C 7,0 km/h (2 Bft)
28/06/2007 10:00 20,9 C 68 % 1011,4 hPa 0,0 l/m 9,4 km/h (2 Bft) S 0,33 h 0,203 mm 394 W/m 14,9 C 20,9 C 14,0 km/h (3 Bft)
28/06/2007 11:00 22,2 C 64 % 1011,7 hPa 0,0 l/m 11,6 km/h (2 Bft) S 0,50 h 0,305 mm 581 W/m 15,0 C 22,2 C 17,1 km/h (3 Bft)
28/06/2007 12:00 22,9 C 61 % 1012,1 hPa 0,0 l/m 12,3 km/h (3 Bft) S 0,53 h 0,432 mm 677 W/m 14,9 C 22,9 C 18,8 km/h (3 Bft)
28/06/2007 13:00 23,6 C 58 % 1012,3 hPa 0,0 l/m 11,4 km/h (2 Bft) SE 0,97 h 0,483 mm 979 W/m 15,0 C 23,6 C 19,1 km/h (3 Bft)
28/06/2007 14:00 23,7 C 57 % 1012,6 hPa 0,0 l/m 12,5 km/h (3 Bft) S 0,97 h 0,660 mm 925 W/m 14,7 C 23,7 C 19,6 km/h (3 Bft)
28/06/2007 15:00 24,0 C 56 % 1012,5 hPa 0,0 l/m 11,7 km/h (2 Bft) S 0,98 h 0,635 mm 847 W/m 14,8 C 24,0 C 17,2 km/h (3 Bft)
28/06/2007 16:00 23,8 C 59 % 1012,4 hPa 0,0 l/m 9,5 km/h (2 Bft) S 1,00 h 0,584 mm 725 W/m 15,4 C 23,8 C 15,7 km/h (3 Bft)
28/06/2007 17:00 23,5 C 61 % 1012,4 hPa 0,0 l/m 10,0 km/h (2 Bft) E 1,00 h 0,508 mm 586 W/m 15,6 C 23,5 C 15,3 km/h (3 Bft)
28/06/2007 18:00 21,4 C 68 % 1012,5 hPa 0,0 l/m 8,5 km/h (2 Bft) E 0,35 h 0,432 mm 205 W/m 15,1 C 21,4 C 12,4 km/h (3 Bft)
28/06/2007 19:00 21,7 C 65 % 1012,3 hPa 0,0 l/m 3,1 km/h (1 Bft) E-NE 0,87 h 0,178 mm 178 W/m 14,8 C 21,7 C 5,5 km/h (1 Bft)
28/06/2007 20:00 20,2 C 72 % 1012,5 hPa 0,0 l/m 1,2 km/h (1 Bft) E-SE 0,13 h 0,127 mm 46 W/m 15,0 C 20,2 C 3,5 km/h (1 Bft)
28/06/2007 21:00 18,3 C 80 % 1012,8 hPa 0,0 l/m 0,5 km/h (0 Bft) E-SE 0,03 h 0,025 mm 8 W/m 14,8 C 18,3 C 2,5 km/h (1 Bft)
28/06/2007 22:00 17,2 C 85 % 1013,3 hPa 0,0 l/m 0,5 km/h (0 Bft) E-SE 0,00 h 0,000 mm 0 W/m 14,7 C 17,2 C 1,2 km/h (1 Bft)
28/06/2007 23:00 16,5 C 86 % 1013,8 hPa 0,2 l/m 1,1 km/h (1 Bft) E-SE 0,00 h 0,025 mm 0 W/m 14,2 C 16,5 C 3,2 km/h (1 Bft)
29/06/2007 00:00 16,2 C 87 % 1014,1 hPa 0,0 l/m 1,5 km/h (1 Bft) E-SE 0,00 h 0,025 mm 0 W/m 14,0 C 16,2 C 2,8 km/h (1 Bft)
29/06/2007 01:00 16,0 C 88 % 1013,9 hPa 0,0 l/m 3,6 km/h (1 Bft) E-SE 0,00 h 0,025 mm 0 W/m 14,0 C 16,0 C 5,1 km/h (1 Bft)
29/06/2007 02:00 15,7 C 87 % 1013,8 hPa 0,0 l/m 4,5 km/h (1 Bft) O 0,00 h 0,025 mm 0 W/m 13,5 C 15,7 C 6,5 km/h (2 Bft)
29/06/2007 03:00 15,2 C 87 % 1013,8 hPa 0,0 l/m 7,7 km/h (2 Bft) O 0,00 h 0,025 mm 0 W/m 13,0 C 15,2 C 10,2 km/h (2 Bft)
29/06/2007 04:00 15,0 C 84 % 1014,0 hPa 0,0 l/m 6,6 km/h (2 Bft) O-NO 0,00 h 0,025 mm 0 W/m 12,4 C 15,0 C 8,5 km/h (2 Bft)
29/06/2007 05:00 15,0 C 82 % 1014,1 hPa 0,0 l/m 6,3 km/h (2 Bft) O-NO 0,00 h 0,025 mm 9 W/m 11,9 C 15,0 C 7,9 km/h (2 Bft)
29/06/2007 06:00 15,2 C 79 % 1014,5 hPa 0,0 l/m 6,1 km/h (2 Bft) O-NO 0,67 h 0,025 mm 46 W/m 11,7 C 15,2 C 8,8 km/h (2 Bft)
29/06/2007 07:00 16,1 C 76 % 1014,7 hPa 0,0 l/m 4,0 km/h (1 Bft) O-NO 0,05 h 0,051 mm 93 W/m 11,9 C 16,1 C 6,0 km/h (2 Bft)
29/06/2007 08:00 18,9 C 71 % 1015,0 hPa 0,0 l/m 2,2 km/h (1 Bft) O 0,90 h 0,076 mm 336 W/m 13,4 C 18,9 C 4,4 km/h (1 Bft)
29/06/2007 09:00 20,9 C 69 % 1015,4 hPa 0,0 l/m 5,2 km/h (1 Bft) S 0,80 h 0,203 mm 453 W/m 14,9 C 20,9 C 8,5 km/h (2 Bft)
29/06/2007 10:00 23,0 C 63 % 1015,4 hPa 0,0 l/m 8,8 km/h (2 Bft) E 0,92 h 0,279 mm 746 W/m 15,7 C 23,0 C 13,8 km/h (3 Bft)
29/06/2007 11:00 23,4 C 61 % 1015,6 hPa 0,0 l/m 8,6 km/h (2 Bft) S 0,83 h 0,508 mm 691 W/m 15,3 C 23,4 C 14,8 km/h (3 Bft)
29/06/2007 12:00 22,8 C 63 % 1015,9 hPa 0,0 l/m 8,3 km/h (2 Bft) E 0,08 h 0,483 mm 359 W/m 15,3 C 22,8 C 13,6 km/h (3 Bft)
29/06/2007 13:00 23,7 C 59 % 1015,9 hPa 0,0 l/m 10,3 km/h (2 Bft) E 0,37 h 0,279 mm 575 W/m 15,1 C 23,7 C 16,3 km/h (3 Bft)
29/06/2007 14:00 22,8 C 65 % 1015,8 hPa 0,0 l/m 8,6 km/h (2 Bft) E 0,00 h 0,406 mm 287 W/m 15,7 C 22,8 C 14,4 km/h (3 Bft)
29/06/2007 15:00 21,8 C 73 % 1015,8 hPa 0,0 l/m 12,4 km/h (3 Bft) E 0,07 h 0,254 mm 289 W/m 16,8 C 21,8 C 17,2 km/h (3 Bft)
29/06/2007 16:00 22,7 C 66 % 1015,7 hPa 0,0 l/m 8,5 km/h (2 Bft) E 0,40 h 0,229 mm 474 W/m 16,0 C 22,7 C 12,8 km/h (3 Bft)
29/06/2007 17:00 23,2 C 63 % 1015,2 hPa 0,0 l/m 7,6 km/h (2 Bft) E 1,00 h 0,356 mm 527 W/m 15,8 C 23,2 C 12,5 km/h (3 Bft)
29/06/2007 18:00 22,3 C 68 % 1015,0 hPa 0,0 l/m 6,9 km/h (2 Bft) E 0,98 h 0,356 mm 350 W/m 16,0 C 22,3 C 11,0 km/h (2 Bft)
29/06/2007 19:00 21,6 C 68 % 1014,8 hPa 0,0 l/m 3,3 km/h (1 Bft) E 0,82 h 0,254 mm 170 W/m 15,5 C 21,6 C 5,9 km/h (2 Bft)
29/06/2007 20:00 20,4 C 75 % 1014,4 hPa 0,0 l/m 0,4 km/h (0 Bft) E-SE 0,62 h 0,127 mm 61 W/m 15,7 C 20,4 C 1,7 km/h (1 Bft)
29/06/2007 21:00 18,8 C 82 % 1014,4 hPa 0,0 l/m 0,0 km/h (0 Bft) N 0,12 h 0,051 mm 11 W/m 15,7 C 18,8 C 0,1 km/h (0 Bft)
29/06/2007 22:00 17,8 C 87 % 1014,7 hPa 0,0 l/m 0,1 km/h (0 Bft) E-SE 0,00 h 0,000 mm 0 W/m 15,6 C 17,8 C 0,3 km/h (0 Bft)
29/06/2007 23:00 17,1 C 89 % 1014,7 hPa 0,0 l/m 2,5 km/h (1 Bft) E-SE 0,00 h 0,025 mm 0 W/m 15,3 C 17,1 C 4,2 km/h (1 Bft)
30/06/2007 00:00 16,5 C 90 % 1014,5 hPa 0,0 l/m 1,4 km/h (1 Bft) NO 0,00 h 0,025 mm 0 W/m 14,8 C 16,5 C 3,0 km/h (1 Bft)
30/06/2007 01:00 16,5 C 90 % 1014,4 hPa 0,0 l/m 0,4 km/h (0 Bft) O-NO 0,00 h 0,025 mm 0 W/m 14,8 C 16,5 C 1,1 km/h (0 Bft)
30/06/2007 02:00 16,5 C 91 % 1014,4 hPa 0,0 l/m 1,1 km/h (1 Bft) O-NO 0,00 h 0,025 mm 0 W/m 15,0 C 16,5 C 1,9 km/h (1 Bft)
30/06/2007 03:00 16,2 C 91 % 1014,3 hPa 0,0 l/m 0,8 km/h (0 Bft) O-NO 0,00 h 0,025 mm 0 W/m 14,7 C 16,2 C 1,9 km/h (1 Bft)
30/06/2007 04:00 16,0 C 91 % 1014,1 hPa 0,0 l/m 1,4 km/h (1 Bft) NO 0,00 h 0,025 mm 0 W/m 14,5 C 16,0 C 3,1 km/h (1 Bft)
30/06/2007 05:00 16,5 C 92 % 1014,3 hPa 0,0 l/m 0,1 km/h (0 Bft) NO 0,00 h 0,025 mm 0 W/m 15,2 C 16,5 C 0,8 km/h (0 Bft)
30/06/2007 06:00 16,9 C 91 % 1014,7 hPa 0,0 l/m 0,7 km/h (0 Bft) NO 0,00 h 0,000 mm 14 W/m 15,4 C 16,9 C 2,6 km/h (1 Bft)
30/06/2007 07:00 17,9 C 88 % 1014,9 hPa 0,0 l/m 0,9 km/h (0 Bft) NO 0,12 h 0,000 mm 116 W/m 15,8 C 17,9 C 2,9 km/h (1 Bft)
30/06/2007 08:00 20,0 C 79 % 1015,2 hPa 0,0 l/m 2,4 km/h (1 Bft) N 0,25 h 0,076 mm 209 W/m 16,3 C 20,0 C 4,7 km/h (1 Bft)
30/06/2007 09:00 20,6 C 77 % 1015,6 hPa 0,0 l/m 5,2 km/h (1 Bft) E 0,03 h 0,127 mm 187 W/m 16,5 C 20,6 C 7,8 km/h (2 Bft)
30/06/2007 10:00 21,4 C 74 % 1015,9 hPa 0,0 l/m 5,1 km/h (1 Bft) E 0,03 h 0,127 mm 293 W/m 16,4 C 21,4 C 9,0 km/h (2 Bft)
30/06/2007 11:00 22,8 C 67 % 1016,3 hPa 0,0 l/m 7,0 km/h (2 Bft) E 0,55 h 0,203 mm 555 W/m 16,2 C 22,8 C 12,2 km/h (2 Bft)
30/06/2007 12:00 23,4 C 67 % 1016,4 hPa 0,0 l/m 8,1 km/h (2 Bft) E 0,70 h 0,381 mm 761 W/m 16,8 C 23,4 C 13,9 km/h (3 Bft)
30/06/2007 13:00 24,3 C 65 % 1016,5 hPa 0,0 l/m 9,0 km/h (2 Bft) E 0,95 h 0,483 mm 895 W/m 17,4 C 24,3 C 14,9 km/h (3 Bft)
30/06/2007 14:00 24,1 C 66 % 1016,4 hPa 0,0 l/m 8,4 km/h (2 Bft) E 0,95 h 0,584 mm 772 W/m 17,3 C 24,1 C 14,2 km/h (3 Bft)
30/06/2007 15:00 24,3 C 63 % 1016,4 hPa 0,0 l/m 7,9 km/h (2 Bft) E 1,00 h 0,508 mm 741 W/m 16,9 C 24,3 C 13,5 km/h (3 Bft)
30/06/2007 16:00 24,1 C 65 % 1016,2 hPa 0,0 l/m 7,6 km/h (2 Bft) E 0,98 h 0,508 mm 535 W/m 17,0 C 24,1 C 11,6 km/h (2 Bft)
30/06/2007 17:00 24,0 C 66 % 1015,8 hPa 0,0 l/m 5,7 km/h (1 Bft) E 0,98 h 0,381 mm 507 W/m 17,3 C 24,0 C 9,3 km/h (2 Bft)
30/06/2007 18:00 23,0 C 69 % 1015,4 hPa 0,0 l/m 5,4 km/h (1 Bft) E 0,78 h 0,356 mm 278 W/m 17,0 C 23,0 C 8,3 km/h (2 Bft)
30/06/2007 19:00 22,3 C 70 % 1015,3 hPa 0,0 l/m 3,1 km/h (1 Bft) S-SE 0,12 h 0,203 mm 133 W/m 16,6 C 22,3 C 5,3 km/h (1 Bft)
30/06/2007 20:00 21,3 C 71 % 1015,1 hPa 0,0 l/m 2,8 km/h (1 Bft) E 0,45 h 0,102 mm 61 W/m 15,8 C 21,3 C 4,9 km/h (1 Bft)
30/06/2007 21:00 19,7 C 79 % 1015,4 hPa 0,0 l/m 0,3 km/h (0 Bft) E-NE 0,03 h 0,051 mm 9 W/m 16,0 C 19,7 C 1,2 km/h (1 Bft)
30/06/2007 22:00 18,9 C 84 % 1015,9 hPa 0,0 l/m 0,0 km/h (0 Bft) N 0,00 h 0,000 mm 0 W/m 16,1 C 18,9 C 0,0 km/h (0 Bft)
30/06/2007 23:00 18,4 C 87 % 1015,8 hPa 0,0 l/m 0,0 km/h (0 Bft) N 0,00 h 0,025 mm 0 W/m 16,2 C 18,4 C 0,0 km/h (0 Bft)
01/07/2007 00:00 17,8 C 89 % 1015,8 hPa 0,0 l/m 0,0 km/h (0 Bft) N 0,00 h 0,000 mm 0 W/m 16,0 C 17,8 C 0,1 km/h (0 Bft)
01/07/2007 01:00 17,6 C 89 % 1015,6 hPa 0,0 l/m 1,1 km/h (0 Bft) E-NE 0,00 h 0,025 mm 0 W/m 15,8 C 17,6 C 1,9 km/h (1 Bft)
01/07/2007 02:00 17,2 C 90 % 1015,4 hPa 0,0 l/m 0,6 km/h (0 Bft) N 0,00 h 0,025 mm 0 W/m 15,5 C 17,2 C 1,1 km/h (1 Bft)
01/07/2007 03:00 17,1 C 91 % 1015,2 hPa 0,0 l/m 1,1 km/h (0 Bft) O-NO 0,00 h 0,025 mm 0 W/m 15,5 C 17,1 C 1,7 km/h (1 Bft)
01/07/2007 04:00 17,0 C 91 % 1015,1 hPa 0,0 l/m 2,4 km/h (1 Bft) O-NO 0,00 h 0,025 mm 0 W/m 15,6 C 17,0 C 3,8 km/h (1 Bft)
01/07/2007 05:00 16,8 C 92 % 1014,8 hPa 0,0 l/m 0,3 km/h (0 Bft) O-NO 0,00 h 0,025 mm 5 W/m 15,5 C 16,8 C 0,5 km/h (0 Bft)
01/07/2007 06:00 16,8 C 93 % 1014,8 hPa 0,0 l/m 0,1 km/h (0 Bft) O-NO 0,00 h 0,000 mm 26 W/m 15,6 C 16,8 C 0,3 km/h (0 Bft)
01/07/2007 07:00 17,8 C 93 % 1014,9 hPa 0,0 l/m 0,1 km/h (0 Bft) O-NO 0,42 h 0,025 mm 135 W/m 16,6 C 17,8 C 0,5 km/h (0 Bft)
01/07/2007 08:00 20,6 C 81 % 1014,8 hPa 0,0 l/m 1,4 km/h (1 Bft) E 0,95 h 0,076 mm 309 W/m 17,2 C 20,6 C 3,2 km/h (1 Bft)
01/07/2007 09:00 22,7 C 71 % 1014,7 hPa 0,0 l/m 4,1 km/h (1 Bft) E 1,00 h 0,178 mm 468 W/m 17,0 C 22,7 C 6,7 km/h (2 Bft)
01/07/2007 10:00 23,8 C 68 % 1014,4 hPa 0,0 l/m 7,4 km/h (2 Bft) E 1,00 h 0,305 mm 608 W/m 17,6 C 23,8 C 11,7 km/h (2 Bft)
01/07/2007 11:00 24,4 C 68 % 1014,5 hPa 0,0 l/m 9,3 km/h (2 Bft) E 1,00 h 0,406 mm 734 W/m 18,2 C 24,4 C 14,3 km/h (3 Bft)
01/07/2007 12:00 24,5 C 68 % 1014,4 hPa 0,0 l/m 8,6 km/h (2 Bft) E 1,00 h 0,508 mm 815 W/m 18,3 C 24,5 C 14,0 km/h (3 Bft)
01/07/2007 13:00 25,0 C 68 % 1014,2 hPa 0,0 l/m 9,3 km/h (2 Bft) E 1,00 h 0,559 mm 831 W/m 18,6 C 25,0 C 14,4 km/h (3 Bft)
01/07/2007 14:00 24,8 C 68 % 1013,9 hPa 0,0 l/m 9,6 km/h (2 Bft) E 0,77 h 0,559 mm 734 W/m 18,5 C 24,8 C 14,7 km/h (3 Bft)
01/07/2007 15:00 23,9 C 72 % 1013,7 hPa 0,0 l/m 9,4 km/h (2 Bft) E 0,52 h 0,483 mm 553 W/m 18,4 C 23,9 C 14,0 km/h (3 Bft)
01/07/2007 16:00 24,4 C 68 % 1013,2 hPa 0,0 l/m 6,9 km/h (2 Bft) E 0,65 h 0,406 mm 556 W/m 18,2 C 24,4 C 11,1 km/h (2 Bft)
01/07/2007 17:00 23,4 C 73 % 1012,7 hPa 0,0 l/m 7,1 km/h (2 Bft) E 0,30 h 0,381 mm 294 W/m 18,2 C 23,4 C 10,2 km/h (2 Bft)
01/07/2007 18:00 23,1 C 74 % 1012,2 hPa 0,0 l/m 4,5 km/h (1 Bft) E 0,68 h 0,229 mm 288 W/m 18,2 C 23,1 C 6,9 km/h (2 Bft)
01/07/2007 19:00 22,4 C 77 % 1011,6 hPa 0,0 l/m 3,0 km/h (1 Bft) E 0,10 h 0,203 mm 130 W/m 18,1 C 22,4 C 4,9 km/h (1 Bft)
01/07/2007 20:00 21,0 C 82 % 1011,1 hPa 0,0 l/m 0,5 km/h (0 Bft) E 0,00 h 0,102 mm 38 W/m 17,7 C 21,0 C 1,1 km/h (1 Bft)
01/07/2007 21:00 20,2 C 85 % 1010,9 hPa 0,0 l/m 0,1 km/h (0 Bft) E 0,00 h 0,025 mm 6 W/m 17,6 C 20,2 C 0,3 km/h (0 Bft)
01/07/2007 22:00 19,9 C 86 % 1011,1 hPa 0,0 l/m 1,7 km/h (1 Bft) S-SE 0,00 h 0,000 mm 0 W/m 17,5 C 19,9 C 2,5 km/h (1 Bft)
01/07/2007 23:00 19,6 C 88 % 1011,2 hPa 0,0 l/m 1,0 km/h (0 Bft) S-SE 0,00 h 0,025 mm 0 W/m 17,5 C 19,6 C 1,6 km/h (1 Bft)
Min-Date _ 29/06/07 26/06/07 26/06/07 - 25/06/07 - - - - 26/06/07 29/06/07 25/06/07
_ Min-Heure 04:09 15:02 17:15 - 00:02 - - - - 05:35 04:09 02:25
Minimum _ 14,8 C 17 % 999,7 hPa - 0,0 km/h (0 Bft) - - - - -0,2 C 14,8 C 0,0 km/h (0 Bft)
Max-Date _ 26/06/07 27/06/07 30/06/07 27/06/07 26/06/07 - 25/06/07 26/06/07 29/06/07 01/07/07 26/06/07 26/06/07
_ Max-Heure 14:58 05:02 13:15 06:54 16:56 - 06:03 15:00 13:12 13:18 14:58 16:36
Maximum _ 30,4 C 93 % 1016,6 hPa 0,2 l/m 49,9 km/h
O-SO (6 Bft)
- 0,02 h 0,940 mm 1165 W/m 19,3 C 30,4 C 64,4 km/h
O-SO (8 Bft)
Moyenne _ 21,2 C 65 % 1010,2 hPa #0,4 l/m 7,3 km/h (2 Bft) E #72:34 h #41,212 mm 408 W/m 13,5 C 21,2 C 10,9 km/h (2 Bft)
Roquefort les pins